Time;durP1;ratioP1;P1;durP2;ratioP2;P2;SDS_P1;SDS_P2;PMS_P1;PMS_P2;Temp;Humidity;BMP_temperature;BMP_pressure;BME280_temperature;BME280_humidity;BME280_pressure;Samples;Min_cycle;Max_cycle;Signal;HPM_P1;HPM_P2
2021/06/07 00:00:13;;;;;;;;;;;;;;;;;;5023920;28;20383;-75
2021/06/07 00:02:39;;;;;;;;;;;;;;;;;;5023981;28;19917;-75
2021/06/07 00:05:05;;;;;;;;;;;;;;;;;;5009093;28;20004;-75
2021/06/07 00:07:31;;;;;;;;;;;;;;;;;;5021344;28;19916;-75
2021/06/07 00:09:57;;;;;;;;;;;;;;;;;;5026513;28;20007;-75
2021/06/07 00:12:22;;;;;;;;;;;;;;;;;;5024273;28;19912;-75
2021/06/07 00:14:48;;;;;;;;;;;;;;;;;;5019903;28;19913;-75
2021/06/07 00:17:14;;;;;;;;;;;;;;;;;;5025443;28;19947;-75
2021/06/07 00:19:40;;;;;;;;;;;;;;;;;;5026690;28;19917;-75
2021/06/07 00:22:06;;;;;;;;;;;;;;;;;;5008373;28;19909;-75
2021/06/07 00:24:32;;;;;;;;;;;;;;;;;;5023754;28;19910;-75
2021/06/07 00:26:58;;;;;;;;;;;;;;;;;;5028420;28;20201;-75
2021/06/07 00:29:24;;;;;;;;;;;;;;;;;;5025475;28;20289;-75
2021/06/07 00:31:50;;;;;;;;;;;;;;;;;;5024593;28;19917;-75
2021/06/07 00:34:15;;;;;;;;;;;;;;;;;;5029808;28;19905;-75
2021/06/07 00:36:41;;;;;;;;;;;;;;;;;;5024939;28;19909;-75
2021/06/07 00:39:07;;;;;;;;;;;;;;;;;;5026769;28;19909;-75
2021/06/07 00:41:33;;;;;;;;;;;;;;;;;;5030478;28;19916;-75
2021/06/07 00:43:59;;;;;;;;;;;;;;;;;;5028105;28;19913;-75
2021/06/07 00:46:25;;;;;;;;;;;;;;;;;;5028040;28;19908;-75
2021/06/07 00:48:51;;;;;;;;;;;;;;;;;;5028151;28;19932;-75
2021/06/07 00:51:17;;;;;;;;;;;;;;;;;;5030666;28;20364;-75
2021/06/07 00:53:42;;;;;;;;;;;;;;;;;;5026280;28;19913;-75
2021/06/07 00:56:08;;;;;;;;;;;;;;;;;;5029379;28;19948;-75
2021/06/07 00:58:35;;;;;;;;;;;;;;;;;;5028276;28;19913;-75
2021/06/07 01:01:01;;;;;;;;;;;;;;;;;;5025292;28;19916;-75
2021/06/07 01:03:26;;;;;;;;;;;;;;;;;;5025200;28;20480;-75
2021/06/07 01:05:52;;;;;;;;;;;;;;;;;;5028261;28;19909;-75
2021/06/07 01:08:18;;;;;;;;;;;;;;;;;;5027081;28;19948;-75
2021/06/07 01:10:44;;;;;;;;;;;;;;;;;;5029139;28;19967;-75
2021/06/07 01:13:10;;;;;;;;;;;;;;;;;;5029692;28;19960;-75
2021/06/07 01:15:36;;;;;;;;;;;;;;;;;;5024698;28;19917;-76
2021/06/07 01:18:02;;;;;;;;;;;;;;;;;;5007297;28;20272;-75
2021/06/07 01:20:28;;;;;;;;;;;;;;;;;;5025867;28;19913;-75
2021/06/07 01:22:54;;;;;;;;;;;;;;;;;;5025131;28;20273;-75
2021/06/07 01:25:20;;;;;;;;;;;;;;;;;;5025695;28;19956;-75
2021/06/07 01:27:46;;;;;;;;;;;;;;;;;;5027241;28;19917;-75
2021/06/07 01:30:12;;;;;;;;;;;;;;;;;;5023574;28;20365;-75
2021/06/07 01:32:37;;;;;;;;;;;;;;;;;;5023618;28;19939;-75
2021/06/07 01:35:03;;;;;;;;;;;;;;;;;;5026300;28;20312;-75
2021/06/07 01:37:29;;;;;;;;;;;;;;;;;;5022298;28;19971;-75
2021/06/07 01:39:55;;;;;;;;;;;;;;;;;;5029000;28;19959;-75
2021/06/07 01:42:21;;;;;;;;;;;;;;;;;;5010757;28;20378;-75
2021/06/07 01:44:47;;;;;;;;;;;;;;;;;;5024477;28;19917;-75
2021/06/07 01:47:13;;;;;;;;;;;;;;;;;;5025837;28;19932;-75
2021/06/07 01:49:39;;;;;;;;;;;;;;;;;;5028503;28;19970;-75
2021/06/07 01:52:04;;;;;;;;;;;;;;;;;;5024141;28;19975;-75
2021/06/07 01:54:30;;;;;;;;;;;;;;;;;;5028899;28;19928;-75
2021/06/07 01:56:56;;;;;;;;;;;;;;;;;;5026965;28;20521;-75
2021/06/07 01:59:22;;;;;;;;;;;;;;;;;;5026705;28;19936;-75
2021/06/07 02:01:48;;;;;;;;;;;;;;;;;;5020500;28;19917;-75
2021/06/07 02:04:14;;;;;;;;;;;;;;;;;;5030445;28;19960;-75
2021/06/07 02:06:40;;;;;;;;;;;;;;;;;;5023804;28;19979;-75
2021/06/07 02:09:06;;;;;;;;;;;;;;;;;;5027917;28;19916;-75
2021/06/07 02:11:32;;;;;;;;;;;;;;;;;;5028728;28;20385;-75
2021/06/07 02:13:58;;;;;;;;;;;;;;;;;;5018786;28;19909;-75
2021/06/07 02:16:24;;;;;;;;;;;;;;;;;;5024966;28;20808;-76
2021/06/07 02:18:50;;;;;;;;;;;;;;;;;;5026872;28;20369;-75
2021/06/07 02:21:16;;;;;;;;;;;;;;;;;;5022476;28;20434;-75
2021/06/07 02:23:41;;;;;;;;;;;;;;;;;;5023821;28;19971;-75
2021/06/07 02:26:07;;;;;;;;;;;;;;;;;;5025384;28;19963;-75
2021/06/07 02:28:33;;;;;;;;;;;;;;;;;;5006231;28;20369;-75
2021/06/07 02:30:59;;;;;;;;;;;;;;;;;;5025172;28;19922;-75
2021/06/07 02:33:25;;;;;;;;;;;;;;;;;;5026103;28;19924;-75
2021/06/07 02:35:51;;;;;;;;;;;;;;;;;;5023450;28;19994;-75
2021/06/07 02:38:17;;;;;;;;;;;;;;;;;;5023998;28;19909;-75
2021/06/07 02:40:43;;;;;;;;;;;;;;;;;;5027948;28;19917;-75
2021/06/07 02:43:08;;;;;;;;;;;;;;;;;;5023703;28;19917;-75
2021/06/07 02:45:34;;;;;;;;;;;;;;;;;;5025063;28;19909;-75
2021/06/07 02:48:00;;;;;;;;;;;;;;;;;;5028051;28;19992;-75
2021/06/07 02:50:26;;;;;;;;;;;;;;;;;;5024657;28;19917;-76
2021/06/07 02:52:52;;;;;;;;;;;;;;;;;;5024384;28;20504;-76
2021/06/07 02:55:18;;;;;;;;;;;;;;;;;;5026521;28;19913;-76
2021/06/07 02:57:44;;;;;;;;;;;;;;;;;;5023683;28;19915;-76
2021/06/07 03:00:10;;;;;;;;;;;;;;;;;;5023242;28;19909;-75
2021/06/07 03:02:36;;;;;;;;;;;;;;;;;;5022201;28;19909;-76
2021/06/07 03:05:02;;;;;;;;;;;;;;;;;;5017162;28;19928;-77
2021/06/07 03:07:28;;;;;;;;;;;;;;;;;;5024049;28;20305;-77
2021/06/07 03:09:54;;;;;;;;;;;;;;;;;;5027018;28;20411;-77
2021/06/07 03:12:20;;;;;;;;;;;;;;;;;;5022006;28;19971;-76
2021/06/07 03:14:46;;;;;;;;;;;;;;;;;;5027480;28;19909;-77
2021/06/07 03:17:11;;;;;;;;;;;;;;;;;;5029195;28;20289;-77
2021/06/07 03:19:37;;;;;;;;;;;;;;;;;;5025118;28;19913;-77
2021/06/07 03:22:03;;;;;;;;;;;;;;;;;;5019979;28;19909;-77
2021/06/07 03:24:29;;;;;;;;;;;;;;;;;;5030580;28;19909;-77
2021/06/07 03:26:55;;;;;;;;;;;;;;;;;;5017669;28;19905;-76
2021/06/07 03:29:21;;;;;;;;;;;;;;;;;;5016787;28;19921;-77
2021/06/07 03:31:47;;;;;;;;;;;;;;;;;;5016163;28;19999;-74
2021/06/07 03:34:13;;;;;;;;;;;;;;;;;;5023377;28;19910;-77
2021/06/07 03:36:39;;;;;;;;;;;;;;;;;;5007389;28;19970;-77
2021/06/07 03:39:05;;;;;;;;;;;;;;;;;;5027264;28;19909;-77
2021/06/07 03:41:31;;;;;;;;;;;;;;;;;;5023494;28;19909;-77
2021/06/07 03:43:57;;;;;;;;;;;;;;;;;;5023592;28;19931;-77
2021/06/07 03:46:22;;;;;;;;;;;;;;;;;;5027071;28;19913;-77
2021/06/07 03:48:48;;;;;;;;;;;;;;;;;;5024504;28;19913;-74
2021/06/07 03:51:14;;;;;;;;;;;;;;;;;;5028633;28;19962;-76
2021/06/07 03:53:40;;;;;;;;;;;;;;;;;;5031797;28;20395;-77
2021/06/07 03:56:06;;;;;;;;;;;;;;;;;;5028706;28;19952;-77
2021/06/07 03:58:32;;;;;;;;;;;;;;;;;;5027890;28;19956;-76
2021/06/07 04:00:58;;;;;;;;;;;;;;;;;;5028243;28;20284;-77
2021/06/07 04:03:24;;;;;;;;;;;;;;;;;;5023946;28;19964;-76
2021/06/07 04:05:50;;;;;;;;;;;;;;;;;;5014860;28;19909;-77
2021/06/07 04:08:16;;;;;;;;;;;;;;;;;;5013472;28;20360;-77
2021/06/07 04:10:45;;;;;;;;;;;;;;;;;;5026825;28;19964;-77
2021/06/07 04:13:11;;;;;;;;;;;;;;;;;;5027518;28;19909;-77
2021/06/07 04:15:37;;;;;;;;;;;;;;;;;;5027954;28;19920;-76
2021/06/07 04:18:02;;;;;;;;;;;;;;;;;;5026369;28;19909;-77
2021/06/07 04:20:28;;;;;;;;;;;;;;;;;;5022096;28;20009;-76
2021/06/07 04:22:54;;;;;;;;;;;;;;;;;;5030062;28;19909;-76
2021/06/07 04:25:20;;;;;;;;;;;;;;;;;;5014771;28;20047;-77
2021/06/07 04:27:46;;;;;;;;;;;;;;;;;;5027994;28;19909;-76
2021/06/07 04:30:12;;;;;;;;;;;;;;;;;;5030200;28;19929;-76
2021/06/07 04:32:38;;;;;;;;;;;;;;;;;;5028673;28;19972;-76
2021/06/07 04:35:04;;;;;;;;;;;;;;;;;;5028680;28;19909;-76
2021/06/07 04:37:30;;;;;;;;;;;;;;;;;;5021392;28;20534;-75
2021/06/07 04:39:55;;;;;;;;;;;;;;;;;;5026237;28;20006;-75
2021/06/07 04:42:21;;;;;;;;;;;;;;;;;;5027217;28;20000;-76
2021/06/07 04:44:47;;;;;;;;;;;;;;;;;;5013698;28;19909;-75
2021/06/07 04:47:13;;;;;;;;;;;;;;;;;;5031202;28;19940;-75
2021/06/07 04:49:39;;;;;;;;;;;;;;;;;;5012835;28;19932;-75
2021/06/07 04:52:05;;;;;;;;;;;;;;;;;;5024527;28;20291;-75
2021/06/07 04:54:31;;;;;;;;;;;;;;;;;;5022756;28;19963;-75
2021/06/07 04:56:57;;;;;;;;;;;;;;;;;;5026958;28;21647;-76
2021/06/07 04:59:23;;;;;;;;;;;;;;;;;;5022635;28;19910;-76
2021/06/07 05:01:48;;;;;;;;;;;;;;;;;;5026149;28;19913;-75
2021/06/07 05:04:14;;;;;;;;;;;;;;;;;;5026009;28;19913;-75
2021/06/07 05:06:40;;;;;;;;;;;;;;;;;;5028853;28;19963;-75
2021/06/07 05:09:06;;;;;;;;;;;;;;;;;;5025280;28;19940;-75
2021/06/07 05:11:32;;;;;;;;;;;;;;;;;;5018990;28;19909;-75
2021/06/07 05:13:58;;;;;;;;;;;;;;;;;;5027115;28;19960;-75
2021/06/07 05:16:24;;;;;;;;;;;;;;;;;;5021951;28;20475;-75
2021/06/07 05:18:50;;;;;;;;;;;;;;;;;;5025618;28;20364;-75
2021/06/07 05:21:16;;;;;;;;;;;;;;;;;;5024085;28;20373;-75
2021/06/07 05:23:42;;;;;;;;;;;;;;;;;;5025938;28;19948;-75
2021/06/07 05:26:07;;;;;;;;;;;;;;;;;;5026821;28;20406;-75
2021/06/07 05:28:33;;;;;;;;;;;;;;;;;;5028278;28;20380;-75
2021/06/07 05:30:59;;;;;;;;;;;;;;;;;;5008790;28;20364;-75
2021/06/07 05:33:25;;;;;;;;;;;;;;;;;;5027403;28;19918;-76
2021/06/07 05:35:51;;;;;;;;;;;;;;;;;;5027828;28;19910;-75
2021/06/07 05:38:17;;;;;;;;;;;;;;;;;;5027326;28;20547;-75
2021/06/07 05:40:43;;;;;;;;;;;;;;;;;;5024310;28;19909;-76
2021/06/07 05:43:09;;;;;;;;;;;;;;;;;;5027388;28;19909;-76
2021/06/07 05:45:35;;;;;;;;;;;;;;;;;;5026848;28;19916;-76
2021/06/07 05:48:01;;;;;;;;;;;;;;;;;;5022527;28;20368;-76
2021/06/07 05:50:26;;;;;;;;;;;;;;;;;;5028875;28;20403;-76
2021/06/07 05:52:52;;;;;;;;;;;;;;;;;;5027260;28;20019;-75
2021/06/07 05:55:18;;;;;;;;;;;;;;;;;;5023949;28;20498;-76
2021/06/07 05:57:44;;;;;;;;;;;;;;;;;;5026110;28;19917;-76
2021/06/07 06:00:10;;;;;;;;;;;;;;;;;;5026438;28;19956;-76
2021/06/07 06:02:36;;;;;;;;;;;;;;;;;;5022312;28;19913;-79
2021/06/07 06:05:03;;;;;;;;;;;;;;;;;;5025302;28;19909;-74
2021/06/07 06:07:29;;;;;;;;;;;;;;;;;;5021514;28;19960;-73
2021/06/07 06:09:54;;;;;;;;;;;;;;;;;;5015119;28;20373;-74
2021/06/07 06:12:20;;;;;;;;;;;;;;;;;;5025200;28;20275;-74
2021/06/07 06:14:46;;;;;;;;;;;;;;;;;;5028068;28;19913;-74
2021/06/07 06:17:12;;;;;;;;;;;;;;;;;;5024864;28;20384;-77
2021/06/07 06:19:38;;;;;;;;;;;;;;;;;;5025800;28;19985;-75
2021/06/07 06:22:05;;;;;;;;;;;;;;;;;;5024142;28;19912;-77
2021/06/07 06:24:31;;;;;;;;;;;;;;;;;;5019011;28;20004;-75
2021/06/07 06:26:57;;;;;;;;;;;;;;;;;;5023889;28;20004;-74
2021/06/07 06:29:23;;;;;;;;;;;;;;;;;;5027122;28;19913;-74
2021/06/07 06:31:49;;;;;;;;;;;;;;;;;;5021947;28;20356;-74
2021/06/07 06:34:15;;;;;;;;;;;;;;;;;;5022606;28;19917;-73
2021/06/07 06:36:40;;;;;;;;;;;;;;;;;;5024957;28;20453;-74
2021/06/07 06:39:06;;;;;;;;;;;;;;;;;;5017340;28;19918;-74
2021/06/07 06:41:33;;;;;;;;;;;;;;;;;;5024970;28;20326;-74
2021/06/07 06:43:59;;;;;;;;;;;;;;;;;;5022388;28;19917;-74
2021/06/07 06:46:24;;;;;;;;;;;;;;;;;;5022479;28;19909;-73
2021/06/07 06:48:50;;;;;;;;;;;;;;;;;;5025884;28;19919;-73
2021/06/07 06:51:16;;;;;;;;;;;;;;;;;;5020787;28;19916;-74
2021/06/07 06:53:42;;;;;;;;;;;;;;;;;;5019497;28;20336;-74
2021/06/07 06:56:08;;;;;;;;;;;;;;;;;;5022595;28;20000;-74
2021/06/07 06:58:34;;;;;;;;;;;;;;;;;;5025997;28;20884;-74
2021/06/07 07:01:00;;;;;;;;;;;;;;;;;;5019366;28;19913;-74
2021/06/07 07:03:26;;;;;;;;;;;;;;;;;;5025741;28;19917;-74
2021/06/07 07:05:54;;;;;;;;;;;;;;;;;;5022619;28;19909;-74
2021/06/07 07:08:21;;;;;;;;;;;;;;;;;;5022683;28;19984;-74
2021/06/07 07:10:47;;;;;;;;;;;;;;;;;;5021934;28;19913;-74
2021/06/07 07:13:13;;;;;;;;;;;;;;;;;;5026694;28;19909;-74
2021/06/07 07:15:39;;;;;;;;;;;;;;;;;;5011638;28;20524;-74
2021/06/07 07:18:05;;;;;;;;;;;;;;;;;;5016081;28;19967;-74
2021/06/07 07:20:30;;;;;;;;;;;;;;;;;;5016505;28;20910;-74
2021/06/07 07:22:56;;;;;;;;;;;;;;;;;;5012360;28;19913;-74
2021/06/07 07:25:22;;;;;;;;;;;;;;;;;;5020639;28;19914;-74
2021/06/07 07:27:48;;;;;;;;;;;;;;;;;;5027265;28;19909;-74
2021/06/07 07:30:14;;;;;;;;;;;;;;;;;;5009373;28;19979;-73
2021/06/07 07:32:40;;;;;;;;;;;;;;;;;;5017403;28;20439;-74
2021/06/07 07:35:06;;;;;;;;;;;;;;;;;;5018377;28;19963;-74
2021/06/07 07:37:33;;;;;;;;;;;;;;;;;;5015938;28;20002;-74
2021/06/07 07:39:59;;;;;;;;;;;;;;;;;;5017348;28;20007;-74
2021/06/07 07:42:25;;;;;;;;;;;;;;;;;;5005562;28;20315;-74
2021/06/07 07:44:51;;;;;;;;;;;;;;;;;;5016120;28;19917;-74
2021/06/07 07:47:18;;;;;;;;;;;;;;;;;;5015371;28;19909;-74
2021/06/07 07:49:44;;;;;;;;;;;;;;;;;;5019209;28;19924;-74
2021/06/07 07:52:10;;;;;;;;;;;;;;;;;;5014740;28;19909;-74
2021/06/07 07:54:36;;;;;;;;;;;;;;;;;;5004848;28;19917;-74
2021/06/07 07:57:02;;;;;;;;;;;;;;;;;;5014298;28;19955;-75
2021/06/07 07:59:28;;;;;;;;;;;;;;;;;;5017734;28;19956;-74
2021/06/07 08:01:54;;;;;;;;;;;;;;;;;;5019623;28;20236;-75
2021/06/07 08:04:20;;;;;;;;;;;;;;;;;;5018355;28;20321;-74
2021/06/07 08:06:45;;;;;;;;;;;;;;;;;;5010783;28;19913;-74
2021/06/07 08:09:11;;;;;;;;;;;;;;;;;;5014529;28;19913;-74
2021/06/07 08:11:37;;;;;;;;;;;;;;;;;;5029205;28;20260;-74
2021/06/07 08:14:03;;;;;;;;;;;;;;;;;;5024006;28;20372;-74
2021/06/07 08:16:29;;;;;;;;;;;;;;;;;;5017248;28;19975;-74
2021/06/07 08:18:55;;;;;;;;;;;;;;;;;;5013595;28;19912;-71
2021/06/07 08:21:21;;;;;;;;;;;;;;;;;;5015462;28;20498;-74
2021/06/07 08:23:47;;;;;;;;;;;;;;;;;;5025466;28;19916;-74
2021/06/07 08:26:13;;;;;;;;;;;;;;;;;;5025530;28;19916;-74
2021/06/07 08:28:39;;;;;;;;;;;;;;;;;;5025691;28;19913;-74
2021/06/07 08:31:05;;;;;;;;;;;;;;;;;;5021271;28;19917;-72
2021/06/07 08:33:33;;;;;;;;;;;;;;;;;;5027492;28;19912;-72
2021/06/07 08:36:01;;;;;;;;;;;;;;;;;;5026379;28;19912;-72
2021/06/07 08:38:27;;;;;;;;;;;;;;;;;;5027100;28;19924;-73
2021/06/07 08:40:53;;;;;;;;;;;;;;;;;;5028387;28;19913;-73
2021/06/07 08:43:19;;;;;;;;;;;;;;;;;;5024491;28;20003;-73
2021/06/07 08:45:45;;;;;;;;;;;;;;;;;;5025855;28;19913;-72
2021/06/07 08:48:11;;;;;;;;;;;;;;;;;;5024631;28;19916;-73
2021/06/07 08:50:37;;;;;;;;;;;;;;;;;;5025095;28;19935;-73
2021/06/07 08:53:03;;;;;;;;;;;;;;;;;;5026222;28;19919;-72
2021/06/07 08:55:31;;;;;;;;;;;;;;;;;;5023505;28;19943;-72
2021/06/07 08:57:57;;;;;;;;;;;;;;;;;;5024828;28;19992;-73
2021/06/07 09:00:23;;;;;;;;;;;;;;;;;;5007487;28;19997;-72
2021/06/07 09:02:49;;;;;;;;;;;;;;;;;;5026313;28;20334;-72
2021/06/07 09:05:15;;;;;;;;;;;;;;;;;;5026980;28;19909;-73
2021/06/07 09:07:40;;;;;;;;;;;;;;;;;;5025281;28;20016;-72
2021/06/07 09:10:06;;;;;;;;;;;;;;;;;;5014226;28;20400;-73
2021/06/07 09:12:32;;;;;;;;;;;;;;;;;;5024515;28;20000;-73
2021/06/07 09:14:58;;;;;;;;;;;;;;;;;;5026281;28;19951;-73
2021/06/07 09:17:24;;;;;;;;;;;;;;;;;;5028328;28;19909;-75
2021/06/07 09:19:50;;;;;;;;;;;;;;;;;;5025629;28;19909;-71
2021/06/07 09:22:16;;;;;;;;;;;;;;;;;;5021199;28;19917;-71
2021/06/07 09:24:42;;;;;;;;;;;;;;;;;;5024168;28;20050;-71
2021/06/07 09:27:08;;;;;;;;;;;;;;;;;;5023120;28;19917;-71
2021/06/07 09:29:34;;;;;;;;;;;;;;;;;;5024714;28;20257;-74
2021/06/07 09:32:00;;;;;;;;;;;;;;;;;;5027783;28;19909;-73
2021/06/07 09:34:26;;;;;;;;;;;;;;;;;;5019581;28;19988;-73
2021/06/07 09:36:52;;;;;;;;;;;;;;;;;;5013608;28;19918;-71
2021/06/07 09:39:18;;;;;;;;;;;;;;;;;;5015661;28;19971;-74
2021/06/07 09:41:43;;;;;;;;;;;;;;;;;;5027342;28;19963;-73
2021/06/07 09:44:10;;;;;;;;;;;;;;;;;;5026989;28;19917;-74
2021/06/07 09:46:36;;;;;;;;;;;;;;;;;;5020283;28;19924;-74
2021/06/07 09:49:02;;;;;;;;;;;;;;;;;;5027546;28;19916;-73
2021/06/07 09:51:28;;;;;;;;;;;;;;;;;;5023821;28;19998;-73
2021/06/07 09:53:57;;;;;;;;;;;;;;;;;;5029223;28;20295;-73
2021/06/07 09:56:23;;;;;;;;;;;;;;;;;;5024225;28;20460;-74
2021/06/07 09:58:49;;;;;;;;;;;;;;;;;;5025252;28;19921;-73
2021/06/07 10:01:15;;;;;;;;;;;;;;;;;;5034055;28;19909;-73
2021/06/07 10:03:48;;;;;;;;;;;;;;;;;;5025528;28;19909;-73
2021/06/07 10:06:14;;;;;;;;;;;;;;;;;;5017294;28;19910;-73
2021/06/07 10:08:40;;;;;;;;;;;;;;;;;;5024357;28;19916;-73
2021/06/07 10:11:06;;;;;;;;;;;;;;;;;;5026329;28;19946;-74
2021/06/07 10:13:32;;;;;;;;;;;;;;;;;;5011811;28;19909;-73
2021/06/07 10:15:58;;;;;;;;;;;;;;;;;;5024342;28;19991;-73
2021/06/07 10:18:23;;;;;;;;;;;;;;;;;;5027226;28;19905;-73
2021/06/07 10:20:53;;;;;;;;;;;;;;;;;;5018556;28;20438;-73
2021/06/07 10:23:19;;;;;;;;;;;;;;;;;;5023931;28;20368;-74
2021/06/07 10:25:45;;;;;;;;;;;;;;;;;;5026286;28;19948;-73
2021/06/07 10:28:11;;;;;;;;;;;;;;;;;;5022564;28;20262;-73
2021/06/07 10:30:37;;;;;;;;;;;;;;;;;;5024563;28;19913;-73
2021/06/07 10:33:03;;;;;;;;;;;;;;;;;;5027818;28;19909;-74
2021/06/07 10:35:29;;;;;;;;;;;;;;;;;;5023576;28;20304;-74
2021/06/07 10:37:55;;;;;;;;;;;;;;;;;;5023964;28;19916;-74
2021/06/07 10:40:20;;;;;;;;;;;;;;;;;;5027530;28;19908;-73
2021/06/07 10:42:46;;;;;;;;;;;;;;;;;;5007667;28;20348;-74
2021/06/07 10:45:12;;;;;;;;;;;;;;;;;;5025445;28;19909;-74
2021/06/07 10:47:38;;;;;;;;;;;;;;;;;;5021748;28;19913;-74
2021/06/07 10:50:04;;;;;;;;;;;;;;;;;;5021433;28;19923;-74
2021/06/07 10:52:31;;;;;;;;;;;;;;;;;;5013739;28;19909;-74
2021/06/07 10:54:56;;;;;;;;;;;;;;;;;;5026237;28;19909;-74
2021/06/07 10:57:22;;;;;;;;;;;;;;;;;;5019240;28;19959;-74
2021/06/07 10:59:48;;;;;;;;;;;;;;;;;;5025221;28;20372;-73
2021/06/07 11:02:14;;;;;;;;;;;;;;;;;;5025159;28;20011;-72
2021/06/07 11:04:40;;;;;;;;;;;;;;;;;;5019585;28;20289;-72
2021/06/07 11:07:06;;;;;;;;;;;;;;;;;;5018662;28;19909;-73
2021/06/07 11:09:32;;;;;;;;;;;;;;;;;;5024460;28;20291;-73
2021/06/07 11:11:58;;;;;;;;;;;;;;;;;;5009068;28;19975;-74
2021/06/07 11:14:24;;;;;;;;;;;;;;;;;;5028746;28;20288;-73
2021/06/07 11:16:50;;;;;;;;;;;;;;;;;;5021685;28;19917;-72
2021/06/07 11:19:16;;;;;;;;;;;;;;;;;;5023823;28;19928;-73
2021/06/07 11:21:43;;;;;;;;;;;;;;;;;;5018798;28;19909;-74
2021/06/07 11:24:09;;;;;;;;;;;;;;;;;;5023049;28;19920;-73
2021/06/07 11:26:35;;;;;;;;;;;;;;;;;;5018805;28;19909;-73
2021/06/07 11:29:01;;;;;;;;;;;;;;;;;;5020504;28;20269;-73
2021/06/07 11:31:27;;;;;;;;;;;;;;;;;;5020117;28;19921;-72
2021/06/07 11:33:53;;;;;;;;;;;;;;;;;;5025143;28;19913;-73
2021/06/07 11:36:19;;;;;;;;;;;;;;;;;;5026441;28;20003;-73
2021/06/07 11:38:45;;;;;;;;;;;;;;;;;;5026701;28;20265;-73
2021/06/07 11:41:11;;;;;;;;;;;;;;;;;;5023696;28;19944;-74
2021/06/07 11:43:37;;;;;;;;;;;;;;;;;;5026983;28;20000;-74
2021/06/07 11:46:03;;;;;;;;;;;;;;;;;;5023202;28;19913;-73
2021/06/07 11:48:29;;;;;;;;;;;;;;;;;;5014900;28;19913;-73
2021/06/07 11:50:54;;;;;;;;;;;;;;;;;;5017684;28;19917;-74
2021/06/07 11:53:22;;;;;;;;;;;;;;;;;;5024013;28;19971;-74
2021/06/07 11:55:48;;;;;;;;;;;;;;;;;;5018781;28;19913;-73
2021/06/07 11:58:14;;;;;;;;;;;;;;;;;;5003361;28;20040;-74
2021/06/07 12:00:40;;;;;;;;;;;;;;;;;;5025840;28;19917;-75
2021/06/07 12:03:06;;;;;;;;;;;;;;;;;;5021068;28;19928;-74
2021/06/07 12:05:32;;;;;;;;;;;;;;;;;;5009655;28;19913;-73
2021/06/07 12:07:58;;;;;;;;;;;;;;;;;;5026772;28;19909;-73
2021/06/07 12:10:24;;;;;;;;;;;;;;;;;;5024075;28;20338;-74
2021/06/07 12:12:50;;;;;;;;;;;;;;;;;;5026159;28;19959;-75
2021/06/07 12:15:16;;;;;;;;;;;;;;;;;;4998252;28;20400;-73
2021/06/07 12:17:42;;;;;;;;;;;;;;;;;;5025696;28;19913;-73
2021/06/07 12:20:08;;;;;;;;;;;;;;;;;;5007551;28;19917;-73
2021/06/07 12:22:34;;;;;;;;;;;;;;;;;;5025092;28;19955;-72
2021/06/07 12:25:11;;;;;;;;;;;;;;;;;;5027068;28;19944;-73
2021/06/07 12:30:22;;;;;;;;;;;;;;;;;;5024001;28;20012;-73
2021/06/07 12:32:49;;;;;;;;;;;;;;;;;;5022955;28;20419;-73
2021/06/07 12:35:16;;;;;;;;;;;;;;;;;;5022994;28;19944;-74
2021/06/07 12:37:42;;;;;;;;;;;;;;;;;;5026055;28;19920;-73
2021/06/07 12:40:08;;;;;;;;;;;;;;;;;;5026122;28;20458;-72
2021/06/07 12:42:34;;;;;;;;;;;;;;;;;;5024099;28;19948;-73
2021/06/07 12:45:00;;;;;;;;;;;;;;;;;;5028318;28;19913;-73
2021/06/07 12:47:26;;;;;;;;;;;;;;;;;;5014256;28;19963;-81
2021/06/07 12:49:52;;;;;;;;;;;;;;;;;;5006657;28;19975;-82
2021/06/07 12:52:18;;;;;;;;;;;;;;;;;;5019395;28;19972;-82
2021/06/07 12:54:44;;;;;;;;;;;;;;;;;;5026721;28;19980;-82
2021/06/07 12:57:10;;;;;;;;;;;;;;;;;;5026453;28;19913;-81
2021/06/07 12:59:38;;;;;;;;;;;;;;;;;;5024370;28;19908;-82
2021/06/07 13:02:04;;;;;;;;;;;;;;;;;;5032716;28;19909;-82
2021/06/07 13:04:30;;;;;;;;;;;;;;;;;;5026582;28;19935;-82
2021/06/07 13:06:56;;;;;;;;;;;;;;;;;;5025249;28;19940;-82
2021/06/07 13:09:22;;;;;;;;;;;;;;;;;;5012019;28;19960;-81
2021/06/07 13:11:51;;;;;;;;;;;;;;;;;;5026564;28;19920;-82
2021/06/07 13:14:17;;;;;;;;;;;;;;;;;;5029507;28;19917;-83
2021/06/07 13:16:43;;;;;;;;;;;;;;;;;;5029109;28;19913;-82
2021/06/07 13:19:08;;;;;;;;;;;;;;;;;;5022102;28;20578;-82
2021/06/07 13:21:34;;;;;;;;;;;;;;;;;;5025188;28;19917;-83
2021/06/07 13:24:00;;;;;;;;;;;;;;;;;;5029225;28;19944;-82
2021/06/07 13:26:26;;;;;;;;;;;;;;;;;;5024829;28;20308;-82
2021/06/07 13:28:52;;;;;;;;;;;;;;;;;;5026495;28;19909;-82
2021/06/07 13:31:18;;;;;;;;;;;;;;;;;;5028876;28;20015;-82
2021/06/07 13:33:44;;;;;;;;;;;;;;;;;;5029074;28;19916;-82
2021/06/07 13:36:10;;;;;;;;;;;;;;;;;;5027052;28;19923;-81
2021/06/07 13:38:36;;;;;;;;;;;;;;;;;;5028347;28;19966;-82
2021/06/07 13:41:02;;;;;;;;;;;;;;;;;;5025430;28;19913;-81
2021/06/07 13:43:28;;;;;;;;;;;;;;;;;;5028742;28;19909;-81
2021/06/07 13:45:54;;;;;;;;;;;;;;;;;;5029905;28;19987;-82
2021/06/07 13:48:20;;;;;;;;;;;;;;;;;;5028682;28;19917;-81
2021/06/07 13:50:46;;;;;;;;;;;;;;;;;;5028141;28;19917;-82
2021/06/07 13:53:12;;;;;;;;;;;;;;;;;;5030402;28;19924;-78
2021/06/07 13:55:37;;;;;;;;;;;;;;;;;;5012746;28;20300;-80
2021/06/07 13:58:03;;;;;;;;;;;;;;;;;;5024413;28;20004;-80
2021/06/07 14:00:29;;;;;;;;;;;;;;;;;;5026183;28;19921;-80
2021/06/07 14:02:55;;;;;;;;;;;;;;;;;;5015013;28;19924;-81
2021/06/07 14:05:21;;;;;;;;;;;;;;;;;;5022621;28;19960;-79
2021/06/07 14:07:47;;;;;;;;;;;;;;;;;;5021401;28;20281;-79
2021/06/07 14:10:13;;;;;;;;;;;;;;;;;;5022496;28;19967;-80
2021/06/07 14:12:39;;;;;;;;;;;;;;;;;;5013768;28;20016;-80
2021/06/07 14:15:05;;;;;;;;;;;;;;;;;;5026911;28;19921;-80
2021/06/07 14:17:32;;;;;;;;;;;;;;;;;;5010134;28;20286;-80
2021/06/07 14:19:58;;;;;;;;;;;;;;;;;;5026920;28;19909;-79
2021/06/07 14:24:50;;;;;;;;;;;;;;;;;;5024829;28;19909;-79
2021/06/07 14:27:16;;;;;;;;;;;;;;;;;;5025382;28;19954;-80
2021/06/07 14:29:42;;;;;;;;;;;;;;;;;;5028119;28;19921;-79
2021/06/07 14:32:08;;;;;;;;;;;;;;;;;;5024708;28;20372;-80
2021/06/07 14:34:34;;;;;;;;;;;;;;;;;;5027975;28;20031;-80
2021/06/07 14:37:00;;;;;;;;;;;;;;;;;;5029346;28;19959;-80
2021/06/07 14:39:25;;;;;;;;;;;;;;;;;;5026361;28;20436;-80
2021/06/07 14:41:51;;;;;;;;;;;;;;;;;;5026900;28;19909;-80
2021/06/07 14:44:17;;;;;;;;;;;;;;;;;;5030909;28;19924;-79
2021/06/07 14:46:43;;;;;;;;;;;;;;;;;;5028537;28;19916;-80
2021/06/07 14:49:09;;;;;;;;;;;;;;;;;;5024352;28;19943;-80
2021/06/07 14:51:35;;;;;;;;;;;;;;;;;;5023388;28;19913;-80
2021/06/07 14:54:01;;;;;;;;;;;;;;;;;;5028252;28;19985;-80
2021/06/07 14:56:27;;;;;;;;;;;;;;;;;;5024605;28;19940;-79
2021/06/07 14:58:53;;;;;;;;;;;;;;;;;;5026469;28;19909;-80
2021/06/07 15:01:19;;;;;;;;;;;;;;;;;;5027186;28;19913;-80
2021/06/07 15:03:45;;;;;;;;;;;;;;;;;;5026687;28;19932;-80
2021/06/07 15:06:11;;;;;;;;;;;;;;;;;;5032922;28;19909;-81
2021/06/07 15:08:37;;;;;;;;;;;;;;;;;;5029822;28;19972;-80
2021/06/07 15:11:03;;;;;;;;;;;;;;;;;;5028415;28;19913;-80
2021/06/07 15:13:29;;;;;;;;;;;;;;;;;;5029705;28;20351;-79
2021/06/07 15:15:55;;;;;;;;;;;;;;;;;;5026749;28;20326;-80
2021/06/07 15:18:21;;;;;;;;;;;;;;;;;;5025495;28;19944;-80
2021/06/07 15:20:47;;;;;;;;;;;;;;;;;;5022063;28;19909;-79
2021/06/07 15:23:13;;;;;;;;;;;;;;;;;;5019433;28;19909;-80
2021/06/07 15:25:39;;;;;;;;;;;;;;;;;;5017942;28;19916;-80
2021/06/07 15:28:05;;;;;;;;;;;;;;;;;;5037354;28;20004;-80
2021/06/07 15:30:30;;;;;;;;;;;;;;;;;;5034046;28;20301;-80
2021/06/07 15:32:58;;;;;;;;;;;;;;;;;;5028960;28;19963;-80
2021/06/07 15:35:24;;;;;;;;;;;;;;;;;;5028257;28;19913;-80
2021/06/07 15:37:50;;;;;;;;;;;;;;;;;;5002966;28;19917;-80
2021/06/07 15:40:15;;;;;;;;;;;;;;;;;;5022636;28;19917;-81
2021/06/07 15:42:41;;;;;;;;;;;;;;;;;;5010956;28;20261;-80
2021/06/07 15:45:07;;;;;;;;;;;;;;;;;;5028773;28;19974;-80
2021/06/07 15:47:33;;;;;;;;;;;;;;;;;;5033791;28;19909;-80
2021/06/07 15:50:02;;;;;;;;;;;;;;;;;;5031245;28;19940;-80
2021/06/07 15:52:28;;;;;;;;;;;;;;;;;;5026897;28;19909;-80
2021/06/07 15:54:53;;;;;;;;;;;;;;;;;;5013901;28;19969;-80
2021/06/07 15:57:20;;;;;;;;;;;;;;;;;;5032064;28;19920;-80
2021/06/07 15:59:45;;;;;;;;;;;;;;;;;;5031765;28;19916;-79
2021/06/07 16:02:11;;;;;;;;;;;;;;;;;;5033098;28;20376;-80
2021/06/07 16:04:37;;;;;;;;;;;;;;;;;;5017020;28;19912;-80
2021/06/07 16:07:03;;;;;;;;;;;;;;;;;;5027870;28;19970;-79
2021/06/07 16:09:29;;;;;;;;;;;;;;;;;;5026298;28;20004;-79
2021/06/07 16:11:55;;;;;;;;;;;;;;;;;;5028299;28;19916;-79
2021/06/07 16:14:21;;;;;;;;;;;;;;;;;;5030815;28;19936;-79
2021/06/07 16:16:50;;;;;;;;;;;;;;;;;;5026240;28;19951;-79
2021/06/07 16:19:18;;;;;;;;;;;;;;;;;;5032541;28;19917;-79
2021/06/07 16:21:44;;;;;;;;;;;;;;;;;;5028450;28;19916;-78
2021/06/07 16:24:10;;;;;;;;;;;;;;;;;;5032538;28;19917;-79
2021/06/07 16:26:35;;;;;;;;;;;;;;;;;;5029949;28;19916;-78
2021/06/07 16:29:01;;;;;;;;;;;;;;;;;;5030277;28;19916;-77
2021/06/07 16:31:27;;;;;;;;;;;;;;;;;;5027102;28;21159;-79
2021/06/07 16:33:53;;;;;;;;;;;;;;;;;;5027126;28;19920;-79
2021/06/07 16:36:19;;;;;;;;;;;;;;;;;;5030204;28;19913;-79
2021/06/07 16:38:45;;;;;;;;;;;;;;;;;;5003955;28;19909;-79
2021/06/07 16:41:11;;;;;;;;;;;;;;;;;;5030555;28;20448;-78